Time;durP1;ratioP1;P1;durP2;ratioP2;P2;SDS_P1;SDS_P2;PMS_P1;PMS_P2;Temp;Humidity;BMP_temperature;BMP_pressure;BME280_temperature;BME280_humidity;BME280_pressure;Samples;Min_cycle;Max_cycle;Signal;HPM_P1;HPM_P2
2022/09/12 00:00:30;;;;;;;4.13;1.20;;;;;;;;;;4773137;30;20052;-81
2022/09/12 00:02:57;;;;;;;3.45;0.93;;;;;;;;;;4773382;30;20522;-81
2022/09/12 00:05:24;;;;;;;3.45;1.20;;;;;;;;;;4771610;30;20039;-80
2022/09/12 00:07:50;;;;;;;2.78;1.10;;;;;;;;;;4771724;30;20035;-80
2022/09/12 00:10:16;;;;;;;3.33;0.85;;;;;;;;;;4772628;30;20040;-80
2022/09/12 00:12:43;;;;;;;1.75;1.05;;;;;;;;;;4773109;30;20052;-80
2022/09/12 00:15:09;;;;;;;4.70;1.10;;;;;;;;;;4772562;30;20047;-81
2022/09/12 00:17:36;;;;;;;2.92;1.02;;;;;;;;;;4771525;30;20130;-80
2022/09/12 00:20:03;;;;;;;2.88;1.20;;;;;;;;;;4772482;30;20079;-80
2022/09/12 00:22:30;;;;;;;3.20;1.00;;;;;;;;;;4770781;30;20052;-81
2022/09/12 00:24:56;;;;;;;1.30;0.90;;;;;;;;;;4772891;30;20565;-80
2022/09/12 00:27:22;;;;;;;1.10;0.88;;;;;;;;;;4772879;30;20044;-81
2022/09/12 00:29:48;;;;;;;0.85;0.77;;;;;;;;;;4772335;30;20496;-81
2022/09/12 00:32:14;;;;;;;2.95;1.02;;;;;;;;;;4772536;30;20055;-80
2022/09/12 00:34:40;;;;;;;3.55;1.30;;;;;;;;;;4772532;30;20075;-81
2022/09/12 00:37:06;;;;;;;3.15;0.90;;;;;;;;;;4772342;30;20559;-81
2022/09/12 00:39:32;;;;;;;3.05;1.23;;;;;;;;;;4772326;30;20067;-81
2022/09/12 00:41:58;;;;;;;1.85;1.10;;;;;;;;;;4772956;30;20063;-81
2022/09/12 00:44:25;;;;;;;4.47;1.10;;;;;;;;;;4771521;30;20109;-81
2022/09/12 00:46:54;;;;;;;3.88;0.93;;;;;;;;;;4772491;30;20173;-81
2022/09/12 00:49:23;;;;;;;2.13;1.08;;;;;;;;;;4770445;30;20134;-81
2022/09/12 00:51:52;;;;;;;1.20;0.80;;;;;;;;;;4769973;30;20412;-81
2022/09/12 00:54:25;;;;;;;1.90;1.10;;;;;;;;;;4772000;30;20056;-82
2022/09/12 00:56:52;;;;;;;4.47;1.20;;;;;;;;;;4771457;30;20460;-81
2022/09/12 00:59:21;;;;;;;6.63;1.27;;;;;;;;;;4771000;30;20039;-82
2022/09/12 01:01:49;;;;;;;3.53;1.13;;;;;;;;;;4770865;30;20043;-81
2022/09/12 01:04:16;;;;;;;2.47;1.20;;;;;;;;;;4772303;30;20488;-81
2022/09/12 01:06:43;;;;;;;3.05;1.23;;;;;;;;;;4772330;30;20047;-81
2022/09/12 01:09:15;;;;;;;1.58;1.02;;;;;;;;;;4772185;30;20064;-80
2022/09/12 01:11:44;;;;;;;2.72;1.38;;;;;;;;;;4773043;30;20106;-80
2022/09/12 01:14:11;;;;;;;1.58;1.02;;;;;;;;;;4772224;30;20120;-80
2022/09/12 01:16:37;;;;;;;1.33;1.10;;;;;;;;;;4771738;30;20059;-80
2022/09/12 01:19:04;;;;;;;3.85;1.23;;;;;;;;;;4772097;30;20085;-80
2022/09/12 01:21:57;;;;;;;4.00;1.13;;;;;;;;;;4772176;30;20104;-81
2022/09/12 01:24:26;;;;;;;2.40;1.08;;;;;;;;;;4777687;30;20069;-81
2022/09/12 01:27:03;;;;;;;1.42;1.05;;;;;;;;;;4770715;30;20039;-81
2022/09/12 01:29:48;;;;;;;2.45;1.02;;;;;;;;;;4772335;30;20058;-80
2022/09/12 01:32:29;;;;;;;2.53;1.02;;;;;;;;;;4772193;30;20084;-80
2022/09/12 01:35:05;;;;;;;3.08;1.05;;;;;;;;;;4771838;30;20478;-80
2022/09/12 01:37:37;;;;;;;2.13;0.98;;;;;;;;;;4772047;30;20051;-81
2022/09/12 01:40:20;;;;;;;2.47;1.17;;;;;;;;;;4770598;30;20100;-81
2022/09/12 01:42:53;;;;;;;2.17;1.08;;;;;;;;;;4772418;30;20052;-81
2022/09/12 01:45:40;;;;;;;2.92;1.00;;;;;;;;;;4771748;30;20071;-80
2022/09/12 01:48:11;;;;;;;3.00;1.13;;;;;;;;;;4771731;30;20539;-81
2022/09/12 01:50:43;;;;;;;1.70;0.90;;;;;;;;;;4771527;30;20079;-81
2022/09/12 01:53:35;;;;;;;2.58;1.10;;;;;;;;;;4771318;30;20124;-81
2022/09/12 01:56:34;;;;;;;1.55;1.10;;;;;;;;;;4771617;30;20577;-81
2022/09/12 01:59:16;;;;;;;2.35;0.90;;;;;;;;;;4779562;30;20048;-80
2022/09/12 02:01:53;;;;;;;2.17;1.08;;;;;;;;;;4771972;30;20044;-81
2022/09/12 02:04:19;;;;;;;2.13;1.00;;;;;;;;;;4771785;30;20079;-81
2022/09/12 02:06:49;;;;;;;2.95;1.00;;;;;;;;;;4771190;30;20051;-80
2022/09/12 02:09:23;;;;;;;2.83;0.98;;;;;;;;;;4771067;30;20051;-80
2022/09/12 02:11:51;;;;;;;2.15;1.10;;;;;;;;;;4771615;30;20062;-80
2022/09/12 02:14:21;;;;;;;2.40;1.00;;;;;;;;;;4771113;30;20062;-80
2022/09/12 02:16:59;;;;;;;0.93;0.90;;;;;;;;;;4771264;30;20052;-80
2022/09/12 02:19:28;;;;;;;2.15;1.20;;;;;;;;;;4769955;30;20442;-80
2022/09/12 02:21:55;;;;;;;1.10;0.80;;;;;;;;;;4771513;30;20496;-80
2022/09/12 02:24:29;;;;;;;2.10;0.95;;;;;;;;;;4771226;30;20092;-80
2022/09/12 02:27:00;;;;;;;2.97;1.10;;;;;;;;;;4771167;30;20082;-81
2022/09/12 02:29:26;;;;;;;1.92;0.90;;;;;;;;;;4774428;30;20051;-81
2022/09/12 02:31:56;;;;;;;2.33;1.60;;;;;;;;;;4773939;30;20044;-81
2022/09/12 02:34:41;;;;;;;1.77;1.03;;;;;;;;;;4773879;30;20535;-80
2022/09/12 02:37:12;;;;;;;3.45;1.05;;;;;;;;;;4774520;30;20047;-80
2022/09/12 02:39:38;;;;;;;;;;;;;;;;;;4774950;30;20416;-81
2022/09/12 02:42:04;;;;;;;1.10;1.00;;;;;;;;;;4774739;30;19914;-81
2022/09/12 02:44:31;;;;;;;1.02;0.75;;;;;;;;;;4774126;30;20448;-81
2022/09/12 02:47:03;;;;;;;1.80;0.82;;;;;;;;;;4774619;30;20039;-81
2022/09/12 02:49:29;;;;;;;1.67;1.20;;;;;;;;;;4774913;30;20047;-81
2022/09/12 02:51:56;;;;;;;4.47;1.00;;;;;;;;;;4774762;30;20488;-81
2022/09/12 02:54:23;;;;;;;2.78;1.02;;;;;;;;;;4774473;30;20043;-81
2022/09/12 02:56:49;;;;;;;1.75;1.10;;;;;;;;;;4774475;30;20124;-81
2022/09/12 02:59:17;;;;;;;1.27;0.90;;;;;;;;;;4774414;30;20077;-81
2022/09/12 03:01:43;;;;;;;5.45;1.00;;;;;;;;;;4774471;30;20480;-81
2022/09/12 03:04:12;;;;;;;1.98;0.93;;;;;;;;;;4773077;30;20166;-81
2022/09/12 03:06:41;;;;;;;1.75;1.20;;;;;;;;;;4774129;30;20075;-81
2022/09/12 03:09:07;;;;;;;1.30;0.80;;;;;;;;;;4774690;30;20070;-81
2022/09/12 03:11:50;;;;;;;3.47;1.17;;;;;;;;;;4774301;30;20059;-80
2022/09/12 03:14:54;;;;;;;1.23;0.90;;;;;;;;;;4773507;30;20055;-81
2022/09/12 03:17:26;;;;;;;1.92;1.00;;;;;;;;;;4790226;30;20114;-81
2022/09/12 03:20:10;;;;;;;1.17;1.00;;;;;;;;;;4789681;29;20045;-81
2022/09/12 03:22:46;;;;;;;2.60;1.17;;;;;;;;;;4779597;30;20082;-80
2022/09/12 03:25:12;;;;;;;2.60;1.17;;;;;;;;;;4774214;30;20104;-81
2022/09/12 03:27:43;;;;;;;2.70;1.10;;;;;;;;;;4772743;30;20040;-81
2022/09/12 03:30:09;;;;;;;1.92;1.17;;;;;;;;;;4772846;30;20134;-81
2022/09/12 03:32:43;;;;;;;4.07;1.25;;;;;;;;;;4772321;30;20083;-81
2022/09/12 03:35:09;;;;;;;1.02;0.95;;;;;;;;;;4773552;30;20136;-81
2022/09/12 03:37:35;;;;;;;1.20;0.90;;;;;;;;;;4773350;30;20043;-81
2022/09/12 03:40:03;;;;;;;3.55;1.10;;;;;;;;;;4772135;30;20044;-80
2022/09/12 03:42:29;;;;;;;1.13;0.98;;;;;;;;;;4774286;30;20054;-81
2022/09/12 03:44:55;;;;;;;2.63;0.77;;;;;;;;;;4773131;30;20416;-81
2022/09/12 03:47:21;;;;;;;0.82;0.70;;;;;;;;;;4773348;30;20044;-81
2022/09/12 03:49:47;;;;;;;3.72;1.00;;;;;;;;;;4772484;30;20044;-81
2022/09/12 03:52:13;;;;;;;1.70;0.90;;;;;;;;;;4773125;30;20077;-81
2022/09/12 03:54:40;;;;;;;1.85;0.93;;;;;;;;;;4771945;30;20050;-81
2022/09/12 03:57:06;;;;;;;1.60;1.20;;;;;;;;;;4773300;30;20097;-81
2022/09/12 03:59:32;;;;;;;1.70;1.00;;;;;;;;;;4773189;30;20128;-80
2022/09/12 04:01:58;;;;;;;1.45;0.93;;;;;;;;;;4773650;30;20100;-80
2022/09/12 04:04:24;;;;;;;2.38;1.20;;;;;;;;;;4772771;30;20420;-81
2022/09/12 04:06:50;;;;;;;1.88;0.90;;;;;;;;;;4772800;30;20506;-80
2022/09/12 04:09:17;;;;;;;1.30;1.00;;;;;;;;;;4772974;30;20055;-81
2022/09/12 04:11:43;;;;;;;1.92;1.23;;;;;;;;;;4773496;30;20123;-81
2022/09/12 04:14:09;;;;;;;2.55;1.20;;;;;;;;;;4772841;30;20152;-81
2022/09/12 04:16:35;;;;;;;1.10;1.00;;;;;;;;;;4772600;30;20159;-81
2022/09/12 04:19:01;;;;;;;1.70;0.80;;;;;;;;;;4772545;30;20052;-81
2022/09/12 04:21:27;;;;;;;2.33;0.95;;;;;;;;;;4773162;30;20056;-81
2022/09/12 04:23:53;;;;;;;1.95;1.20;;;;;;;;;;4771545;30;20508;-81
2022/09/12 04:26:20;;;;;;;2.17;1.30;;;;;;;;;;4772659;30;20138;-81
2022/09/12 04:28:46;;;;;;;1.85;1.25;;;;;;;;;;4772638;30;20035;-81
2022/09/12 04:31:17;;;;;;;6.00;1.60;;;;;;;;;;4771391;30;20575;-81
2022/09/12 04:33:43;;;;;;;1.23;0.82;;;;;;;;;;4772523;30;20066;-81
2022/09/12 04:36:13;;;;;;;3.05;1.23;;;;;;;;;;4772512;30;20581;-81
2022/09/12 04:38:39;;;;;;;1.83;0.90;;;;;;;;;;4772967;30;20476;-81
2022/09/12 04:41:16;;;;;;;1.92;1.38;;;;;;;;;;4772145;30;20504;-81
2022/09/12 04:43:42;;;;;;;2.88;1.10;;;;;;;;;;4771136;30;20081;-81
2022/09/12 04:46:10;;;;;;;1.33;0.95;;;;;;;;;;4771915;30;20183;-81
2022/09/12 04:48:36;;;;;;;2.25;1.15;;;;;;;;;;4772024;30;20411;-81
2022/09/12 04:51:09;;;;;;;1.17;1.08;;;;;;;;;;4771564;30;20042;-81
2022/09/12 04:53:36;;;;;;;1.77;1.02;;;;;;;;;;4770729;30;20048;-80
2022/09/12 04:56:07;;;;;;;3.38;1.10;;;;;;;;;;4772153;30;20055;-80
2022/09/12 04:58:33;;;;;;;1.60;1.02;;;;;;;;;;4771907;30;20043;-80
2022/09/12 05:01:10;;;;;;;1.92;0.90;;;;;;;;;;4772082;30;20089;-81
2022/09/12 05:03:42;;;;;;;3.88;1.13;;;;;;;;;;4770492;30;20054;-81
2022/09/12 05:06:09;;;;;;;1.88;1.02;;;;;;;;;;4778913;30;20048;-81
2022/09/12 05:08:36;;;;;;;3.85;1.10;;;;;;;;;;4770798;30;20071;-81
2022/09/12 05:11:06;;;;;;;1.40;1.02;;;;;;;;;;4771916;30;20484;-81
2022/09/12 05:13:32;;;;;;;1.83;1.33;;;;;;;;;;4770147;30;20516;-80
2022/09/12 05:15:59;;;;;;;2.15;1.00;;;;;;;;;;4770009;30;20053;-81
2022/09/12 05:18:26;;;;;;;2.65;1.10;;;;;;;;;;4769046;30;20101;-81
2022/09/12 05:20:54;;;;;;;1.45;1.10;;;;;;;;;;4771048;30;20048;-81
2022/09/12 05:23:22;;;;;;;2.92;1.10;;;;;;;;;;4768215;30;20051;-82
2022/09/12 05:25:49;;;;;;;2.75;1.08;;;;;;;;;;4768584;30;20153;-81
2022/09/12 05:28:16;;;;;;;2.45;1.00;;;;;;;;;;4768061;30;20451;-81
2022/09/12 05:30:43;;;;;;;1.60;1.02;;;;;;;;;;4769919;30;20428;-81
2022/09/12 05:33:09;;;;;;;3.08;1.23;;;;;;;;;;4770084;30;20064;-78
2022/09/12 05:35:37;;;;;;;1.80;0.90;;;;;;;;;;4770570;30;20535;-76
2022/09/12 05:38:03;;;;;;;3.20;1.30;;;;;;;;;;4770313;30;20043;-78
2022/09/12 05:40:30;;;;;;;4.03;1.23;;;;;;;;;;4769819;30;20098;-78
2022/09/12 05:42:56;;;;;;;3.05;1.00;;;;;;;;;;4769403;30;20052;-77
2022/09/12 05:45:22;;;;;;;2.15;1.00;;;;;;;;;;4769790;30;20105;-76
2022/09/12 05:47:49;;;;;;;2.75;1.25;;;;;;;;;;4768169;30;20417;-76
2022/09/12 05:50:15;;;;;;;2.15;0.90;;;;;;;;;;4769946;30;20397;-76
2022/09/12 05:52:41;;;;;;;4.45;1.13;;;;;;;;;;4769835;30;20064;-76
2022/09/12 05:55:07;;;;;;;1.52;1.02;;;;;;;;;;4767828;30;20132;-79
2022/09/12 05:57:33;;;;;;;3.95;1.10;;;;;;;;;;4768272;30;20047;-80
2022/09/12 06:00:00;;;;;;;2.72;1.20;;;;;;;;;;4768949;30;20059;-80
2022/09/12 06:02:26;;;;;;;4.18;1.10;;;;;;;;;;4772433;30;20067;-80
2022/09/12 06:04:52;;;;;;;3.15;1.13;;;;;;;;;;4773996;30;20057;-76
2022/09/12 06:07:18;;;;;;;13.05;11.38;;;;;;;;;;4774733;30;20156;-80
2022/09/12 06:09:44;;;;;;;6.22;3.60;;;;;;;;;;4775116;30;20052;-78
2022/09/12 06:12:10;;;;;;;4.78;1.75;;;;;;;;;;4774770;30;20101;-77
2022/09/12 06:14:37;;;;;;;2.55;1.10;;;;;;;;;;4774620;30;20044;-76
2022/09/12 06:17:04;;;;;;;1.80;1.00;;;;;;;;;;4774871;30;20472;-77
2022/09/12 06:19:30;;;;;;;4.70;1.10;;;;;;;;;;4774803;30;20056;-76
2022/09/12 06:21:56;;;;;;;2.30;1.05;;;;;;;;;;4775222;30;20130;-76
2022/09/12 06:24:22;;;;;;;2.92;0.98;;;;;;;;;;4774725;30;20047;-76
2022/09/12 06:26:51;;;;;;;2.22;1.20;;;;;;;;;;4775219;30;20120;-76
2022/09/12 06:29:18;;;;;;;1.40;0.90;;;;;;;;;;4774334;30;20397;-77
2022/09/12 06:31:44;;;;;;;1.75;1.08;;;;;;;;;;4774945;30;20048;-77
2022/09/12 06:34:12;;;;;;;1.10;1.00;;;;;;;;;;4774733;30;20063;-77
2022/09/12 06:36:43;;;;;;;2.65;1.23;;;;;;;;;;4774651;30;20480;-77
2022/09/12 06:39:20;;;;;;;3.25;1.38;;;;;;;;;;4774518;30;20108;-77
2022/09/12 06:41:47;;;;;;;4.80;1.17;;;;;;;;;;4774779;30;20051;-77
2022/09/12 06:44:17;;;;;;;2.95;1.27;;;;;;;;;;4774303;30;20063;-77
2022/09/12 06:46:43;;;;;;;2.70;1.87;;;;;;;;;;4774547;30;20508;-77
2022/09/12 06:49:10;;;;;;;8.48;3.10;;;;;;;;;;4774315;30;20067;-77
2022/09/12 06:51:36;;;;;;;7.70;3.42;;;;;;;;;;4774677;30;20101;-77
2022/09/12 06:54:02;;;;;;;3.90;2.70;;;;;;;;;;4774458;30;20062;-77
2022/09/12 06:56:28;;;;;;;3.85;2.65;;;;;;;;;;4774995;30;20050;-77
2022/09/12 06:58:56;;;;;;;3.17;2.35;;;;;;;;;;4774880;30;20452;-77
2022/09/12 07:01:23;;;;;;;10.48;2.92;;;;;;;;;;4773598;30;20450;-77
2022/09/12 07:03:51;;;;;;;4.65;2.60;;;;;;;;;;4773036;30;20058;-77
2022/09/12 07:06:18;;;;;;;3.97;1.98;;;;;;;;;;4774158;30;20060;-77
2022/09/12 07:08:44;;;;;;;4.60;2.05;;;;;;;;;;4774227;30;20130;-77
2022/09/12 07:11:13;;;;;;;10.30;2.20;;;;;;;;;;4772895;30;20131;-78
2022/09/12 07:13:40;;;;;;;4.85;2.08;;;;;;;;;;4773897;30;20063;-77
2022/09/12 07:16:06;;;;;;;3.58;2.03;;;;;;;;;;4773834;30;20047;-77
2022/09/12 07:18:33;;;;;;;4.60;2.30;;;;;;;;;;4774314;30;20043;-77
2022/09/12 07:21:00;;;;;;;8.52;2.42;;;;;;;;;;4774016;30;20055;-78
2022/09/12 07:23:27;;;;;;;5.95;2.30;;;;;;;;;;4774151;30;20508;-77
2022/09/12 07:25:56;;;;;;;4.72;2.03;;;;;;;;;;4773905;30;20040;-77
2022/09/12 07:28:23;;;;;;;4.00;2.28;;;;;;;;;;4773771;30;20485;-77
2022/09/12 07:30:50;;;;;;;4.53;1.80;;;;;;;;;;4773775;30;20044;-77
2022/09/12 07:33:16;;;;;;;5.05;2.20;;;;;;;;;;4773783;30;20086;-77
2022/09/12 07:35:42;;;;;;;3.22;2.00;;;;;;;;;;4773810;30;20048;-77
2022/09/12 07:38:08;;;;;;;2.40;1.45;;;;;;;;;;4773859;30;20036;-77
2022/09/12 07:40:35;;;;;;;7.82;2.05;;;;;;;;;;4772593;30;20139;-77
2022/09/12 07:43:01;;;;;;;7.13;2.05;;;;;;;;;;4773979;30;20059;-77
2022/09/12 07:45:28;;;;;;;8.27;2.40;;;;;;;;;;4771955;30;20062;-77
2022/09/12 07:47:54;;;;;;;7.45;1.90;;;;;;;;;;4773651;30;20134;-77
2022/09/12 07:50:20;;;;;;;9.18;1.85;;;;;;;;;;4773296;30;20489;-77
2022/09/12 07:52:47;;;;;;;8.40;2.10;;;;;;;;;;4772656;30;20484;-77
2022/09/12 07:55:13;;;;;;;9.07;2.17;;;;;;;;;;4773503;30;20044;-77
2022/09/12 07:57:39;;;;;;;8.65;1.98;;;;;;;;;;4773615;30;20206;-78
2022/09/12 08:00:07;;;;;;;5.22;1.50;;;;;;;;;;4773622;30;20100;-78
2022/09/12 08:02:34;;;;;;;7.35;2.13;;;;;;;;;;4773450;30;20051;-78
2022/09/12 08:05:01;;;;;;;7.18;1.63;;;;;;;;;;4772669;30;20063;-78
2022/09/12 08:07:27;;;;;;;5.38;1.40;;;;;;;;;;4772584;30;20369;-77
2022/09/12 08:09:53;;;;;;;4.60;1.80;;;;;;;;;;4772825;30;20051;-77
2022/09/12 08:12:20;;;;;;;5.65;1.42;;;;;;;;;;4773134;30;20504;-77
2022/09/12 08:14:47;;;;;;;6.55;1.40;;;;;;;;;;4772875;30;20074;-78
2022/09/12 08:17:13;;;;;;;6.93;1.60;;;;;;;;;;4772844;30;20043;-77
2022/09/12 08:19:39;;;;;;;6.03;1.70;;;;;;;;;;4772784;30;20039;-77
2022/09/12 08:22:05;;;;;;;3.28;1.65;;;;;;;;;;4772985;30;20055;-77
2022/09/12 08:24:31;;;;;;;4.40;1.70;;;;;;;;;;4772445;30;20102;-77
2022/09/12 08:26:57;;;;;;;5.80;1.50;;;;;;;;;;4772154;30;20074;-78
2022/09/12 08:29:23;;;;;;;3.70;1.50;;;;;;;;;;4772550;30;20051;-77
2022/09/12 08:31:49;;;;;;;4.03;1.45;;;;;;;;;;4773174;30;20598;-77
2022/09/12 08:34:17;;;;;;;7.88;1.45;;;;;;;;;;4772348;30;20047;-77
2022/09/12 08:36:44;;;;;;;4.32;1.50;;;;;;;;;;4772370;30;20058;-77
2022/09/12 08:39:13;;;;;;;7.80;1.50;;;;;;;;;;4771205;30;20485;-77
2022/09/12 08:41:44;;;;;;;10.40;1.70;;;;;;;;;;4772544;30;20048;-77
2022/09/12 08:44:10;;;;;;;10.52;1.65;;;;;;;;;;4772267;30;20075;-77
2022/09/12 08:46:42;;;;;;;13.00;1.73;;;;;;;;;;4772436;30;20132;-77
2022/09/12 08:49:10;;;;;;;18.92;2.17;;;;;;;;;;4772769;30;20064;-78
2022/09/12 08:51:37;;;;;;;13.25;2.20;;;;;;;;;;4772415;30;20143;-78
2022/09/12 08:54:04;;;;;;;11.38;1.58;;;;;;;;;;4772275;30;20048;-77
2022/09/12 08:56:34;;;;;;;12.15;1.88;;;;;;;;;;4772282;30;20119;-78
2022/09/12 08:59:00;;;;;;;23.45;1.88;;;;;;;;;;4772063;30;20055;-78
2022/09/12 09:01:26;;;;;;;13.52;1.70;;;;;;;;;;4772693;30;20058;-78
2022/09/12 09:03:55;;;;;;;11.50;1.50;;;;;;;;;;4771993;30;20054;-78
2022/09/12 09:06:22;;;;;;;9.63;1.35;;;;;;;;;;4772161;30;20492;-78
2022/09/12 09:08:51;;;;;;;10.60;1.73;;;;;;;;;;4771712;30;20096;-78
2022/09/12 09:11:17;;;;;;;11.23;1.92;;;;;;;;;;4770479;30;20040;-78
2022/09/12 09:16:33;;;;;;;7.07;1.42;;;;;;;;;;4771399;30;20088;-78
2022/09/12 09:19:05;;;;;;;7.72;1.10;;;;;;;;;;4772122;30;20051;-78
2022/09/12 09:21:58;;;;;;;4.25;1.50;;;;;;;;;;4771957;30;20086;-78
2022/09/12 09:24:44;;;;;;;1.83;0.80;;;;;;;;;;4772007;30;20056;-78
2022/09/12 09:27:13;;;;;;;5.55;0.93;;;;;;;;;;4772052;30;20043;-78
2022/09/12 09:29:44;;;;;;;4.50;0.90;;;;;;;;;;4771756;30;20060;-78
2022/09/12 09:32:13;;;;;;;4.28;0.80;;;;;;;;;;4771747;30;20055;-78
2022/09/12 09:34:40;;;;;;;4.65;0.88;;;;;;;;;;4771658;30;20149;-78
2022/09/12 09:37:14;;;;;;;1.50;0.80;;;;;;;;;;4771182;30;20044;-78
2022/09/12 09:39:50;;;;;;;2.67;1.13;;;;;;;;;;4771894;30;20086;-78
2022/09/12 09:42:31;;;;;;;1.42;0.90;;;;;;;;;;4771871;30;20059;-78
2022/09/12 09:44:58;;;;;;;3.35;0.88;;;;;;;;;;4770289;30;20405;-78
2022/09/12 09:47:25;;;;;;;2.88;1.02;;;;;;;;;;4771801;30;20043;-78
2022/09/12 09:49:51;;;;;;;1.20;0.65;;;;;;;;;;4771775;30;20130;-78
2022/09/12 09:52:24;;;;;;;1.30;0.90;;;;;;;;;;4771705;30;20058;-78
2022/09/12 09:55:10;;;;;;;3.08;1.00;;;;;;;;;;4771911;30;20051;-78
2022/09/12 09:57:36;;;;;;;2.33;0.80;;;;;;;;;;4771012;30;20122;-78
2022/09/12 10:00:21;;;;;;;2.75;0.85;;;;;;;;;;4771438;30;20052;-78
2022/09/12 10:03:06;;;;;;;3.13;1.00;;;;;;;;;;4770226;30;20043;-78
2022/09/12 10:05:34;;;;;;;1.88;1.00;;;;;;;;;;4771418;30;20189;-78
2022/09/12 10:08:01;;;;;;;4.00;0.80;;;;;;;;;;4771537;30;20051;-78
2022/09/12 10:10:27;;;;;;;1.15;0.80;;;;;;;;;;4771463;30;20518;-78
2022/09/12 10:13:09;;;;;;;2.65;1.10;;;;;;;;;;4771812;30;20116;-78
2022/09/12 10:15:37;;;;;;;4.15;1.05;;;;;;;;;;4771593;30;20115;-78
2022/09/12 10:18:03;;;;;;;3.08;1.05;;;;;;;;;;4771800;30;20051;-79
2022/09/12 10:20:31;;;;;;;2.38;1.33;;;;;;;;;;4771593;30;20040;-78
2022/09/12 10:23:03;;;;;;;3.13;1.20;;;;;;;;;;4769909;30;20508;-78
2022/09/12 10:25:29;;;;;;;3.33;1.50;;;;;;;;;;4771566;30;20130;-78
2022/09/12 10:27:58;;;;;;;3.95;1.25;;;;;;;;;;4771828;30;20044;-78
2022/09/12 10:30:24;;;;;;;3.85;1.40;;;;;;;;;;4771253;30;20043;-78
2022/09/12 10:32:51;;;;;;;2.08;1.33;;;;;;;;;;4771689;30;20109;-78
2022/09/12 10:35:19;;;;;;;5.03;1.75;;;;;;;;;;4771575;30;20048;-79
2022/09/12 10:37:58;;;;;;;2.65;2.00;;;;;;;;;;4771221;30;20040;-78
2022/09/12 10:40:24;;;;;;;3.80;2.03;;;;;;;;;;4771364;30;20048;-78
2022/09/12 10:42:51;;;;;;;3.65;1.60;;;;;;;;;;4771883;30;20480;-78
2022/09/12 10:45:21;;;;;;;5.57;1.83;;;;;;;;;;4770942;30;20535;-78
2022/09/12 10:47:47;;;;;;;3.83;1.75;;;;;;;;;;4769470;30;20036;-78
2022/09/12 10:50:21;;;;;;;3.42;1.80;;;;;;;;;;4773610;30;20496;-79
2022/09/12 10:52:47;;;;;;;2.80;1.75;;;;;;;;;;4774150;30;20123;-78
2022/09/12 10:55:14;;;;;;;3.40;1.65;;;;;;;;;;4774143;30;20043;-78
2022/09/12 10:57:54;;;;;;;3.67;1.85;;;;;;;;;;4774227;30;20519;-78
2022/09/12 11:00:26;;;;;;;4.53;1.50;;;;;;;;;;4774064;30;20055;-78
2022/09/12 11:03:04;;;;;;;2.53;1.50;;;;;;;;;;4774629;30;20051;-78
2022/09/12 11:05:35;;;;;;;2.97;1.60;;;;;;;;;;4773821;30;20125;-78
2022/09/12 11:08:04;;;;;;;3.58;1.92;;;;;;;;;;4773977;30;20047;-78
2022/09/12 11:10:33;;;;;;;2.17;1.27;;;;;;;;;;4773948;30;20051;-78
2022/09/12 11:13:05;;;;;;;1.75;1.48;;;;;;;;;;4774212;30;20044;-78
2022/09/12 11:15:35;;;;;;;4.95;1.50;;;;;;;;;;4773670;30;20412;-79
2022/09/12 11:18:09;;;;;;;3.58;1.63;;;;;;;;;;4773845;30;20040;-78
2022/09/12 11:20:41;;;;;;;3.78;1.85;;;;;;;;;;4773637;30;20155;-79
2022/09/12 11:23:23;;;;;;;5.20;1.77;;;;;;;;;;4773517;30;20044;-79
2022/09/12 11:26:08;;;;;;;2.22;1.80;;;;;;;;;;4773812;30;20106;-79
2022/09/12 11:28:38;;;;;;;2.47;1.70;;;;;;;;;;4773705;30;20058;-78
2022/09/12 11:31:13;;;;;;;4.80;1.65;;;;;;;;;;4773425;30;20424;-78
2022/09/12 11:33:39;;;;;;;5.88;2.10;;;;;;;;;;4773745;30;20055;-78
2022/09/12 11:36:08;;;;;;;2.38;1.70;;;;;;;;;;4772568;30;20499;-78
2022/09/12 11:38:46;;;;;;;2.65;1.80;;;;;;;;;;4773085;30;20135;-78
2022/09/12 11:41:23;;;;;;;6.07;1.63;;;;;;;;;;4774036;30;20048;-78
2022/09/12 11:43:56;;;;;;;7.22;2.08;;;;;;;;;;4773953;30;20055;-78
2022/09/12 11:46:42;;;;;;;4.65;1.92;;;;;;;;;;4774005;30;20055;-78
2022/09/12 11:49:14;;;;;;;3.65;2.05;;;;;;;;;;4773571;30;20044;-79
2022/09/12 11:51:41;;;;;;;2.78;1.88;;;;;;;;;;4773736;30;20058;-78
2022/09/12 11:54:25;;;;;;;3.65;1.70;;;;;;;;;;4772999;30;20052;-78
2022/09/12 11:57:08;;;;;;;4.55;2.20;;;;;;;;;;4773257;30;20645;-79
2022/09/12 11:59:44;;;;;;;6.18;2.28;;;;;;;;;;4773046;30;20038;-78
2022/09/12 12:02:17;;;;;;;7.70;2.15;;;;;;;;;;4773737;30;20051;-79
2022/09/12 12:04:48;;;;;;;3.50;2.10;;;;;;;;;;4773672;30;20514;-79
2022/09/12 12:07:14;;;;;;;3.13;2.17;;;;;;;;;;4772968;30;20530;-78
2022/09/12 12:09:46;;;;;;;4.57;2.05;;;;;;;;;;4773156;30;20568;-78
2022/09/12 12:12:15;;;;;;;6.45;2.40;;;;;;;;;;4773230;30;20104;-78
2022/09/12 12:14:44;;;;;;;4.80;2.40;;;;;;;;;;4772089;30;20142;-79
2022/09/12 12:17:18;;;;;;;5.47;2.40;;;;;;;;;;4772894;30;20039;-79
2022/09/12 12:19:45;;;;;;;4.85;2.75;;;;;;;;;;4772831;30;20044;-79
2022/09/12 12:22:16;;;;;;;6.60;2.58;;;;;;;;;;4772741;30;20069;-79
2022/09/12 12:25:01;;;;;;;8.45;3.40;;;;;;;;;;4772710;30;20071;-79
2022/09/12 12:27:42;;;;;;;6.35;2.55;;;;;;;;;;4772954;30;20488;-79
2022/09/12 12:30:28;;;;;;;9.15;2.63;;;;;;;;;;4772538;30;20523;-79
2022/09/12 12:33:00;;;;;;;10.35;2.72;;;;;;;;;;4771113;30;20101;-79
2022/09/12 12:35:37;;;;;;;7.30;3.22;;;;;;;;;;4772536;30;20071;-79
2022/09/12 12:38:04;;;;;;;9.20;2.83;;;;;;;;;;4772350;30;20577;-79
2022/09/12 12:40:30;;;;;;;6.90;2.90;;;;;;;;;;4771746;30;20412;-79
2022/09/12 12:43:01;;;;;;;4.45;2.78;;;;;;;;;;4771674;30;20055;-72
2022/09/12 12:45:27;;;;;;;6.80;3.00;;;;;;;;;;4772142;30;20070;-74
2022/09/12 12:47:59;;;;;;;6.72;2.67;;;;;;;;;;4771627;30;20130;-74
2022/09/12 12:50:26;;;;;;;7.57;2.95;;;;;;;;;;4771413;30;20057;-74
2022/09/12 12:52:55;;;;;;;6.30;2.97;;;;;;;;;;4772620;30;20055;-74
2022/09/12 12:55:25;;;;;;;9.95;2.75;;;;;;;;;;4772233;30;20096;-74
2022/09/12 12:57:55;;;;;;;8.77;2.83;;;;;;;;;;4771631;30;20055;-73
2022/09/12 13:00:21;;;;;;;7.88;3.15;;;;;;;;;;4771360;30;20047;-73
2022/09/12 13:03:00;;;;;;;6.47;2.88;;;;;;;;;;4772129;30;20058;-72
2022/09/12 13:05:28;;;;;;;7.82;2.83;;;;;;;;;;4771822;30;20052;-72
2022/09/12 13:08:15;;;;;;;8.57;3.10;;;;;;;;;;4770673;30;20051;-73
2022/09/12 13:10:48;;;;;;;8.07;2.97;;;;;;;;;;4773054;30;20053;-72
2022/09/12 13:13:20;;;;;;;7.13;2.65;;;;;;;;;;4766311;30;20056;-72
2022/09/12 13:15:47;;;;;;;6.40;2.38;;;;;;;;;;4752179;30;20059;-74
2022/09/12 13:18:19;;;;;;;7.95;2.33;;;;;;;;;;4777085;30;20151;-73
2022/09/12 13:21:04;;;;;;;7.93;2.55;;;;;;;;;;4771174;30;20112;-74
2022/09/12 13:23:32;;;;;;;9.45;2.70;;;;;;;;;;4767911;29;20047;-73
2022/09/12 13:25:59;;;;;;;5.57;2.35;;;;;;;;;;4770087;30;20043;-73
2022/09/12 13:28:26;;;;;;;6.35;2.80;;;;;;;;;;4770855;30;20047;-73
2022/09/12 13:30:55;;;;;;;8.48;2.88;;;;;;;;;;4769803;30;20071;-73
2022/09/12 13:33:28;;;;;;;8.75;2.50;;;;;;;;;;4770649;30;20052;-73
2022/09/12 13:36:03;;;;;;;6.88;2.95;;;;;;;;;;4769857;30;20060;-74
2022/09/12 13:38:37;;;;;;;6.78;2.42;;;;;;;;;;4770168;30;20075;-74
2022/09/12 13:41:09;;;;;;;9.25;2.75;;;;;;;;;;4769750;30;20063;-73
2022/09/12 13:43:40;;;;;;;5.60;2.15;;;;;;;;;;4771378;30;20078;-74
2022/09/12 13:46:07;;;;;;;5.03;2.05;;;;;;;;;;4772461;30;20086;-73
2022/09/12 13:48:33;;;;;;;5.25;2.20;;;;;;;;;;4788820;30;20047;-73
2022/09/12 13:51:04;;;;;;;5.50;2.25;;;;;;;;;;4788299;30;20051;-73
2022/09/12 13:53:44;;;;;;;9.93;2.33;;;;;;;;;;4782211;29;20054;-73
2022/09/12 13:56:15;;;;;;;5.93;1.97;;;;;;;;;;4756038;30;20138;-73
2022/09/12 13:58:50;;;;;;;8.25;2.05;;;;;;;;;;4770371;30;20495;-72
2022/09/12 14:01:16;;;;;;;5.60;2.25;;;;;;;;;;4769317;30;20147;-73
2022/09/12 14:06:51;;;;;;;9.43;2.38;;;;;;;;;;4768275;30;20050;-73
2022/09/12 14:09:25;;;;;;;7.82;1.83;;;;;;;;;;4770283;30;20508;-73
2022/09/12 14:11:52;;;;;;;3.28;1.80;;;;;;;;;;4770029;30;20066;-72
2022/09/12 14:14:21;;;;;;;4.60;1.88;;;;;;;;;;4768767;30;20052;-73
2022/09/12 14:16:48;;;;;;;5.70;2.17;;;;;;;;;;4770342;30;20064;-73
2022/09/12 14:19:16;;;;;;;5.38;2.53;;;;;;;;;;4770266;30;20130;-73
2022/09/12 14:21:42;;;;;;;7.03;2.20;;;;;;;;;;4769478;30;20381;-73
2022/09/12 14:24:11;;;;;;;8.07;1.98;;;;;;;;;;4772171;30;20059;-73
2022/09/12 14:26:39;;;;;;;7.72;2.22;;;;;;;;;;4772594;30;20172;-73
2022/09/12 14:29:06;;;;;;;5.57;1.98;;;;;;;;;;4772599;30;20088;-73
2022/09/12 14:31:34;;;;;;;5.63;2.33;;;;;;;;;;4773180;30;20052;-73
2022/09/12 14:34:11;;;;;;;5.80;1.85;;;;;;;;;;4773415;30;20122;-73
2022/09/12 14:36:40;;;;;;;5.47;2.05;;;;;;;;;;4772694;30;20052;-73
2022/09/12 14:39:18;;;;;;;7.00;2.03;;;;;;;;;;4773628;30;20055;-73
2022/09/12 14:41:45;;;;;;;7.68;1.85;;;;;;;;;;4773042;30;20051;-73
2022/09/12 14:44:22;;;;;;;10.20;2.10;;;;;;;;;;4771735;30;20978;-73
2022/09/12 14:46:49;;;;;;;8.00;2.20;;;;;;;;;;4771180;30;20125;-73
2022/09/12 14:49:30;;;;;;;4.50;1.98;;;;;;;;;;4772265;30;20035;-72
2022/09/12 14:52:03;;;;;;;3.20;1.95;;;;;;;;;;4772865;30;20144;-73
2022/09/12 14:54:30;;;;;;;5.68;2.33;;;;;;;;;;4772449;30;20444;-72
2022/09/12 14:56:57;;;;;;;6.78;2.33;;;;;;;;;;4773228;30;20416;-73
2022/09/12 14:59:33;;;;;;;3.45;1.90;;;;;;;;;;4775039;30;20047;-73
2022/09/12 15:02:31;;;;;;;5.72;2.17;;;;;;;;;;4779602;30;20052;-73
2022/09/12 15:05:03;;;;;;;3.38;2.17;;;;;;;;;;4790641;29;20047;-74